HISTORICAL SENSOR DATA

Sensor Data Report

DB LIVE
CURRENT TIME--:--:--
DEVICE NETWORK Gateway Status
13 ESP · realtime ~1s · history 60s
Weather WS-MOD-01
ONLINE
Actuator ACT-MOD-01
OFFLINE
Mainboard L3 MB-L3-01
ONLINE
Mainboard L5 MB-L5-01
ONLINE
Remote AC AC-REMOTE-01
ONLINE
PZEM L3-01 PWR-L3-01
OFFLINE
PZEM L3-02 PWR-L3-02
OFFLINE
PZEM L3-03 PWR-L3-03
OFFLINE
PZEM L3-04 PWR-L3-04
OFFLINE
PZEM L5-01 PWR-L5-01
ONLINE
PZEM L5-02 PWR-L5-02
ONLINE
PZEM L5-03 PWR-L5-03
OFFLINE
PZEM L5-04 PWR-L5-04
OFFLINE
REPORT FILTER

Periode & Sensor

DATABASE HISTORY
RESET
QUICK RANGE Hari ini 7 hari 30 hari
PERIODE31 Aug 2026sampai 06 Sep 2026
TOTAL DATA67,527sensor readings
MINIMUM-0.50sesuai filter
AVERAGE85.08sesuai filter
MAXIMUM32,564.20sesuai filter
REPORT RESULT

Data Sensor

31/08/2026 — 06/09/2026 EXPORT CSV
NOTANGGALWAKTUDEVICECHANNELSENSORVALUEUNIT
12801 06/09/2026 20:44:00 MB-L5-01Mainboard Lantai 5 L5-AI-04 Analog Input 4 3.05 V
12802 06/09/2026 20:44:00 MB-L3-01Mainboard Lantai 3 L3-AI-04 Analog Input 4 3.12 V
12803 06/09/2026 20:44:00 MB-L5-01Mainboard Lantai 5 L5-AI-06 Analog Input 6 3.05 V
12804 06/09/2026 20:44:00 AC-REMOTE-01Remote AC AC-MODE AC Operating Mode 1.00 code
12805 06/09/2026 20:44:00 MB-L5-01Mainboard Lantai 5 L5-AI-02 Analog Input 2 3.05 V
12806 06/09/2026 20:44:00 PWR-L5-01Power Meter L5 PZEM 01 PZEM-L5-01-ENERGY PZEM L5-01 Energy 0.03 kWh
12807 06/09/2026 20:44:00 MB-L3-01Mainboard Lantai 3 L3-RAD-01 Radiation 1 1.00 W/m²
12808 06/09/2026 20:44:00 MB-L5-01Mainboard Lantai 5 L5-RAD-02 Radiation 2 1.00 W/m²
12809 06/09/2026 20:44:00 MB-L3-01Mainboard Lantai 3 L3-LUX-03 Illuminance / LUX 3 745.90 lux
12810 06/09/2026 20:44:00 MB-L3-01Mainboard Lantai 3 L3-AI-01 Analog Input 1 3.12 V
12811 06/09/2026 20:44:00 MB-L3-01Mainboard Lantai 3 L3-SHT-03-RH SHT20 3 Humidity 44.40 %RH
12812 06/09/2026 20:44:00 MB-L3-01Mainboard Lantai 3 L3-SHT-02-T SHT20 2 Temperature 29.50 °C
12813 06/09/2026 20:44:00 WS-MOD-01Weather Station Module WS-TEMP Suhu Udara 21.70 °C
12814 06/09/2026 20:44:00 MB-L5-01Mainboard Lantai 5 L5-LUX-03 Illuminance / LUX 3 0.20 lux
12815 06/09/2026 20:44:00 AC-REMOTE-01Remote AC AC-SETPOINT AC Set Temperature 23.00 °C
12816 06/09/2026 20:44:00 MB-L3-01Mainboard Lantai 3 L3-LUX-01 Illuminance / LUX 1 511.60 lux
12817 06/09/2026 20:44:00 PWR-L5-02Power Meter L5 PZEM 02 PZEM-L5-02-POWER PZEM L5-02 Active Power 1.10 W
12818 06/09/2026 20:44:00 MB-L5-01Mainboard Lantai 5 L5-SHT-02-T SHT20 2 Temperature 29.90 °C
12819 06/09/2026 20:44:00 PWR-L5-01Power Meter L5 PZEM 01 PZEM-L5-01-VOLT PZEM L5-01 Voltage 226.40 V
12820 06/09/2026 20:44:00 AC-REMOTE-01Remote AC AC-POWER AC Power State 1.00 state
12821 06/09/2026 20:44:00 MB-L5-01Mainboard Lantai 5 L5-BGT-01 Black Globe Temperature 1 27.50 °C
12822 06/09/2026 20:44:00 MB-L5-01Mainboard Lantai 5 L5-BGT-03 Black Globe Temperature 3 27.20 °C
12823 06/09/2026 20:44:00 MB-L3-01Mainboard Lantai 3 L3-LUX-06 Illuminance / LUX 6 555.60 lux
12824 06/09/2026 20:44:00 MB-L3-01Mainboard Lantai 3 L3-SHT-02-RH SHT20 2 Humidity 44.40 %RH
12825 06/09/2026 20:44:00 MB-L3-01Mainboard Lantai 3 L3-SHT-01-T SHT20 1 Temperature 29.10 °C
12826 06/09/2026 20:44:00 MB-L5-01Mainboard Lantai 5 L5-LUX-02 Illuminance / LUX 2 0.20 lux
12827 06/09/2026 20:44:00 WS-MOD-01Weather Station Module WS-WIND Kecepatan Angin 1.12 m/s
12828 06/09/2026 20:44:00 MB-L5-01Mainboard Lantai 5 L5-LUX-06 Illuminance / LUX 6 0.10 lux
12829 06/09/2026 20:44:00 MB-L3-01Mainboard Lantai 3 L3-LUX-02 Illuminance / LUX 2 628.10 lux
12830 06/09/2026 20:44:00 PWR-L5-02Power Meter L5 PZEM 02 PZEM-L5-02-CURR PZEM L5-02 Current 0.00 A
12831 06/09/2026 20:43:00 MB-L5-01Mainboard Lantai 5 L5-LUX-04 Illuminance / LUX 4 0.10 lux
12832 06/09/2026 20:43:00 WS-MOD-01Weather Station Module WS-DIR Arah Angin 164.90 °
12833 06/09/2026 20:43:00 MB-L5-01Mainboard Lantai 5 L5-ST-01 Surface Temperature 1 25.20 °C
12834 06/09/2026 20:43:00 MB-L5-01Mainboard Lantai 5 L5-SHT-03-RH SHT20 3 Humidity 45.10 %RH
12835 06/09/2026 20:43:00 MB-L3-01Mainboard Lantai 3 L3-LUX-05 Illuminance / LUX 5 397.90 lux
12836 06/09/2026 20:43:00 PWR-L5-01Power Meter L5 PZEM 01 PZEM-L5-01-PF PZEM L5-01 Power Factor 0.39
12837 06/09/2026 20:43:00 MB-L3-01Mainboard Lantai 3 L3-AI-06 Analog Input 6 3.12 V
12838 06/09/2026 20:43:00 PWR-L5-02Power Meter L5 PZEM 02 PZEM-L5-02-PF PZEM L5-02 Power Factor 1.00
12839 06/09/2026 20:43:00 MB-L3-01Mainboard Lantai 3 L3-SHT-03-T SHT20 3 Temperature 29.40 °C
12840 06/09/2026 20:43:00 MB-L3-01Mainboard Lantai 3 L3-AI-03 Analog Input 3 3.12 V
12841 06/09/2026 20:43:00 MB-L5-01Mainboard Lantai 5 L5-BGT-02 Black Globe Temperature 2 27.50 °C
12842 06/09/2026 20:43:00 PWR-L5-01Power Meter L5 PZEM 01 PZEM-L5-01-POWER PZEM L5-01 Active Power 10.50 W
12843 06/09/2026 20:43:00 WS-MOD-01Weather Station Module WS-PRES Tekanan Udara 912.00 hPa
12844 06/09/2026 20:43:00 PWR-L5-02Power Meter L5 PZEM 02 PZEM-L5-02-FREQ PZEM L5-02 Frequency 50.00 Hz
12845 06/09/2026 20:43:00 MB-L3-01Mainboard Lantai 3 L3-SHT-01-RH SHT20 1 Humidity 44.80 %RH
12846 06/09/2026 20:43:00 AC-REMOTE-01Remote AC AC-FAN AC Fan Speed 0.00 code
12847 06/09/2026 20:43:00 MB-L5-01Mainboard Lantai 5 L5-SHT-01-RH SHT20 1 Humidity 44.80 %RH
12848 06/09/2026 20:43:00 WS-MOD-01Weather Station Module WS-RH Kelembapan Udara 69.70 %RH
12849 06/09/2026 20:43:00 MB-L5-01Mainboard Lantai 5 L5-ST-02 Surface Temperature 2 25.20 °C
12850 06/09/2026 20:43:00 MB-L5-01Mainboard Lantai 5 L5-HFT-02 Heat Flow Temperature 2 25.00 °C
12851 06/09/2026 20:43:00 MB-L5-01Mainboard Lantai 5 L5-SHT-01-T SHT20 1 Temperature 29.50 °C
12852 06/09/2026 20:43:00 PWR-L5-02Power Meter L5 PZEM 02 PZEM-L5-02-ENERGY PZEM L5-02 Energy 0.04 kWh
12853 06/09/2026 20:43:00 MB-L5-01Mainboard Lantai 5 L5-RAD-01 Radiation 1 1.00 W/m²
12854 06/09/2026 20:43:00 MB-L5-01Mainboard Lantai 5 L5-AI-04 Analog Input 4 3.05 V
12855 06/09/2026 20:43:00 MB-L3-01Mainboard Lantai 3 L3-AI-04 Analog Input 4 3.12 V
12856 06/09/2026 20:43:00 MB-L5-01Mainboard Lantai 5 L5-AI-06 Analog Input 6 3.05 V
12857 06/09/2026 20:43:00 AC-REMOTE-01Remote AC AC-MODE AC Operating Mode 1.00 code
12858 06/09/2026 20:43:00 MB-L5-01Mainboard Lantai 5 L5-AI-02 Analog Input 2 3.05 V
12859 06/09/2026 20:43:00 PWR-L5-01Power Meter L5 PZEM 01 PZEM-L5-01-ENERGY PZEM L5-01 Energy 0.03 kWh
12860 06/09/2026 20:43:00 MB-L3-01Mainboard Lantai 3 L3-RAD-01 Radiation 1 1.00 W/m²
12861 06/09/2026 20:43:00 MB-L5-01Mainboard Lantai 5 L5-RAD-02 Radiation 2 1.00 W/m²
12862 06/09/2026 20:43:00 MB-L3-01Mainboard Lantai 3 L3-LUX-03 Illuminance / LUX 3 747.50 lux
12863 06/09/2026 20:43:00 MB-L3-01Mainboard Lantai 3 L3-AI-01 Analog Input 1 3.12 V
12864 06/09/2026 20:43:00 MB-L3-01Mainboard Lantai 3 L3-SHT-03-RH SHT20 3 Humidity 44.50 %RH
12865 06/09/2026 20:43:00 MB-L3-01Mainboard Lantai 3 L3-SHT-02-T SHT20 2 Temperature 29.30 °C
12866 06/09/2026 20:43:00 WS-MOD-01Weather Station Module WS-TEMP Suhu Udara 21.70 °C
12867 06/09/2026 20:43:00 MB-L5-01Mainboard Lantai 5 L5-LUX-03 Illuminance / LUX 3 0.20 lux
12868 06/09/2026 20:43:00 AC-REMOTE-01Remote AC AC-SETPOINT AC Set Temperature 23.00 °C
12869 06/09/2026 20:43:00 MB-L3-01Mainboard Lantai 3 L3-LUX-01 Illuminance / LUX 1 512.50 lux
12870 06/09/2026 20:43:00 PWR-L5-02Power Meter L5 PZEM 02 PZEM-L5-02-POWER PZEM L5-02 Active Power 1.00 W
12871 06/09/2026 20:43:00 MB-L5-01Mainboard Lantai 5 L5-SHT-02-T SHT20 2 Temperature 29.80 °C
12872 06/09/2026 20:43:00 PWR-L5-01Power Meter L5 PZEM 01 PZEM-L5-01-VOLT PZEM L5-01 Voltage 226.40 V
12873 06/09/2026 20:43:00 AC-REMOTE-01Remote AC AC-POWER AC Power State 1.00 state
12874 06/09/2026 20:43:00 MB-L5-01Mainboard Lantai 5 L5-BGT-01 Black Globe Temperature 1 27.50 °C
12875 06/09/2026 20:43:00 MB-L5-01Mainboard Lantai 5 L5-BGT-03 Black Globe Temperature 3 27.20 °C
12876 06/09/2026 20:43:00 MB-L3-01Mainboard Lantai 3 L3-LUX-06 Illuminance / LUX 6 555.60 lux
12877 06/09/2026 20:43:00 MB-L3-01Mainboard Lantai 3 L3-SHT-02-RH SHT20 2 Humidity 44.30 %RH
12878 06/09/2026 20:43:00 MB-L3-01Mainboard Lantai 3 L3-SHT-01-T SHT20 1 Temperature 29.20 °C
12879 06/09/2026 20:43:00 MB-L5-01Mainboard Lantai 5 L5-LUX-02 Illuminance / LUX 2 0.20 lux
12880 06/09/2026 20:43:00 WS-MOD-01Weather Station Module WS-WIND Kecepatan Angin 2.61 m/s
12881 06/09/2026 20:43:00 MB-L5-01Mainboard Lantai 5 L5-LUX-06 Illuminance / LUX 6 0.10 lux
12882 06/09/2026 20:43:00 MB-L3-01Mainboard Lantai 3 L3-LUX-02 Illuminance / LUX 2 629.10 lux
12883 06/09/2026 20:43:00 PWR-L5-02Power Meter L5 PZEM 02 PZEM-L5-02-CURR PZEM L5-02 Current 0.00 A
12884 06/09/2026 20:43:00 PWR-L5-01Power Meter L5 PZEM 01 PZEM-L5-01-FREQ PZEM L5-01 Frequency 50.00 Hz
12885 06/09/2026 20:43:00 MB-L3-01Mainboard Lantai 3 L3-AI-05 Analog Input 5 3.12 V
12886 06/09/2026 20:43:00 MB-L5-01Mainboard Lantai 5 L5-SHT-02-RH SHT20 2 Humidity 44.50 %RH
12887 06/09/2026 20:43:00 MB-L3-01Mainboard Lantai 3 L3-AI-02 Analog Input 2 3.12 V
12888 06/09/2026 20:43:00 MB-L5-01Mainboard Lantai 5 L5-LUX-01 Illuminance / LUX 1 0.10 lux
12889 06/09/2026 20:43:00 MB-L3-01Mainboard Lantai 3 L3-LUX-04 Illuminance / LUX 4 590.20 lux
12890 06/09/2026 20:43:00 MB-L3-01Mainboard Lantai 3 L3-RAD-02 Radiation 2 1.00 W/m²
12891 06/09/2026 20:43:00 PWR-L5-02Power Meter L5 PZEM 02 PZEM-L5-02-VOLT PZEM L5-02 Voltage 226.30 V
12892 06/09/2026 20:43:00 MB-L5-01Mainboard Lantai 5 L5-HFT-01 Heat Flow Temperature 1 24.90 °C
12893 06/09/2026 20:43:00 MB-L5-01Mainboard Lantai 5 L5-SHT-03-T SHT20 3 Temperature 29.60 °C
12894 06/09/2026 20:43:00 PWR-L5-01Power Meter L5 PZEM 01 PZEM-L5-01-CURR PZEM L5-01 Current 0.12 A
12895 06/09/2026 20:43:00 MB-L5-01Mainboard Lantai 5 L5-AI-03 Analog Input 3 3.05 V
12896 06/09/2026 20:43:00 MB-L5-01Mainboard Lantai 5 L5-AI-05 Analog Input 5 3.05 V
12897 06/09/2026 20:43:00 MB-L5-01Mainboard Lantai 5 L5-AI-01 Analog Input 1 3.05 V
12898 06/09/2026 20:42:00 PWR-L5-01Power Meter L5 PZEM 01 PZEM-L5-01-POWER PZEM L5-01 Active Power 10.50 W
12899 06/09/2026 20:42:00 WS-MOD-01Weather Station Module WS-PRES Tekanan Udara 912.00 hPa
12900 06/09/2026 20:42:00 PWR-L5-02Power Meter L5 PZEM 02 PZEM-L5-02-FREQ PZEM L5-02 Frequency 49.90 Hz
Menampilkan maksimal 100 data per halaman